createdAt,value
2022-10-08T00:01:18.844Z,12.42
2022-10-08T00:03:49.326Z,12.30
2022-10-08T00:06:22.988Z,12.08
2022-10-08T00:08:56.225Z,11.89
2022-10-08T00:11:36.375Z,11.89
2022-10-08T00:14:05.295Z,11.93
2022-10-08T00:16:41.287Z,12.01
2022-10-08T00:19:13.772Z,11.84
2022-10-08T00:21:44.051Z,11.79
2022-10-08T00:24:17.293Z,11.93
2022-10-08T00:26:45.154Z,12.10
2022-10-08T00:29:15.358Z,12.44
2022-10-08T00:31:45.333Z,12.43
2022-10-08T00:34:22.494Z,12.68
2022-10-08T00:36:55.087Z,12.64
2022-10-08T00:39:24.611Z,12.64
2022-10-08T00:41:54.909Z,12.78
2022-10-08T00:44:55.722Z,12.74
2022-10-08T00:47:46.148Z,12.66
2022-10-08T00:50:19.352Z,12.89
2022-10-08T00:52:55.050Z,12.91
2022-10-08T00:55:24.491Z,12.80
2022-10-08T00:57:52.907Z,12.74
2022-10-08T01:00:25.236Z,12.56
2022-10-08T01:02:53.369Z,12.42
2022-10-08T01:05:35.022Z,12.33
2022-10-08T01:08:32.669Z,12.31
2022-10-08T01:11:36.710Z,12.28
2022-10-08T01:14:30.388Z,12.10
2022-10-08T01:17:32.171Z,11.99
2022-10-08T01:20:14.038Z,11.94
2022-10-08T01:23:21.289Z,12.15
2022-10-08T01:26:21.366Z,11.91
2022-10-08T01:29:06.261Z,11.98
2022-10-08T01:31:54.628Z,11.62
2022-10-08T01:34:37.591Z,11.47
2022-10-08T01:37:09.873Z,11.39
2022-10-08T01:39:39.548Z,11.48
2022-10-08T01:42:08.594Z,11.62
2022-10-08T01:44:46.431Z,11.39
2022-10-08T01:47:19.856Z,11.41
2022-10-08T01:50:04.049Z,11.39
2022-10-08T01:52:48.295Z,11.32
2022-10-08T01:55:29.680Z,11.63
2022-10-08T01:58:02.825Z,11.59
2022-10-08T02:00:32.186Z,11.72
2022-10-08T02:02:59.116Z,11.76
2022-10-08T02:05:30.650Z,11.72
2022-10-08T02:07:57.795Z,12.08
2022-10-08T02:10:26.335Z,11.78
2022-10-08T02:12:53.406Z,11.60
2022-10-08T02:15:35.265Z,11.56
2022-10-08T02:18:25.158Z,11.77
2022-10-08T02:21:09.433Z,11.84
2022-10-08T02:23:50.113Z,11.75
2022-10-08T02:26:27.407Z,11.80
2022-10-08T02:29:10.952Z,11.99
2022-10-08T02:31:45.672Z,12.01
2022-10-08T02:34:20.223Z,11.90
2022-10-08T02:37:08.070Z,12.11
2022-10-08T02:39:43.562Z,12.05
2022-10-08T02:42:15.874Z,12.13
2022-10-08T02:44:47.456Z,12.07
2022-10-08T02:47:20.698Z,11.98
2022-10-08T02:49:54.024Z,11.80
2022-10-08T02:52:23.193Z,11.77
2022-10-08T02:54:52.987Z,11.75
2022-10-08T02:57:34.995Z,11.78
2022-10-08T03:00:03.597Z,11.87
2022-10-08T03:02:39.788Z,11.81
2022-10-08T03:05:15.358Z,11.98
2022-10-08T03:07:43.281Z,12.11
2022-10-08T03:10:12.145Z,12.18
2022-10-08T03:12:39.169Z,12.02
2022-10-08T03:15:11.624Z,11.92
2022-10-08T03:17:47.347Z,11.84
2022-10-08T03:20:14.834Z,11.83
2022-10-08T03:22:41.798Z,11.82
2022-10-08T03:25:08.981Z,11.85
2022-10-08T03:27:36.087Z,11.83
2022-10-08T03:30:04.858Z,12.10
2022-10-08T03:32:31.778Z,12.26
2022-10-08T03:34:58.720Z,12.20
2022-10-08T03:37:25.612Z,12.24
2022-10-08T03:39:52.642Z,12.36
2022-10-08T03:42:19.548Z,12.34
2022-10-08T03:44:46.535Z,12.23
2022-10-08T03:47:13.456Z,12.35
2022-10-08T03:49:41.183Z,12.40
2022-10-08T03:52:08.197Z,12.38
2022-10-08T03:54:36.363Z,12.29
2022-10-08T03:57:04.571Z,12.27
2022-10-08T03:59:31.472Z,12.24
2022-10-08T04:01:58.427Z,12.19
2022-10-08T04:04:25.858Z,12.20
2022-10-08T04:06:52.954Z,12.18
2022-10-08T04:09:19.922Z,12.17
2022-10-08T04:11:46.866Z,12.25
2022-10-08T04:14:13.828Z,12.49
2022-10-08T04:16:40.790Z,12.36
2022-10-08T04:19:07.751Z,12.16
2022-10-08T04:21:34.701Z,12.09
2022-10-08T04:24:02.302Z,11.92
2022-10-08T04:26:29.291Z,11.85
2022-10-08T04:28:56.242Z,11.82
2022-10-08T04:31:23.635Z,11.85
2022-10-08T04:33:51.980Z,11.90
2022-10-08T04:36:24.724Z,11.89
2022-10-08T04:38:51.958Z,11.96
2022-10-08T04:41:25.648Z,12.01
2022-10-08T04:43:54.623Z,11.93
2022-10-08T04:46:22.995Z,11.89
2022-10-08T04:48:53.434Z,11.89
2022-10-08T04:51:23.229Z,11.88
2022-10-08T04:53:51.493Z,12.02
2022-10-08T04:56:38.662Z,11.97
2022-10-08T04:59:05.665Z,12.02
2022-10-08T05:01:32.635Z,12.20
2022-10-08T05:04:00.329Z,12.19
2022-10-08T05:06:30.102Z,12.12
2022-10-08T05:09:02.483Z,12.29
2022-10-08T05:11:30.252Z,12.31
2022-10-08T05:13:58.509Z,12.31
2022-10-08T05:16:26.506Z,12.45
2022-10-08T05:18:53.867Z,12.29
2022-10-08T05:21:29.788Z,12.14
2022-10-08T05:24:03.944Z,12.20
2022-10-08T05:26:57.051Z,12.20
2022-10-08T05:29:22.516Z,12.27
2022-10-08T05:31:49.445Z,12.35
2022-10-08T05:34:16.427Z,12.42
2022-10-08T05:36:43.424Z,12.28
2022-10-08T05:39:10.729Z,12.22
2022-10-08T05:41:37.677Z,12.26
2022-10-08T05:44:06.051Z,12.20
2022-10-08T05:46:36.063Z,12.20
2022-10-08T05:49:07.145Z,12.16
2022-10-08T05:51:34.571Z,12.27
2022-10-08T05:54:01.598Z,12.21
2022-10-08T05:56:29.130Z,12.29
2022-10-08T05:58:56.133Z,12.48
2022-10-08T06:01:27.972Z,12.51
2022-10-08T06:04:07.021Z,12.40
2022-10-08T06:06:38.645Z,12.31
2022-10-08T06:09:07.208Z,12.38
2022-10-08T06:11:36.957Z,12.23
2022-10-08T06:14:07.021Z,12.14
2022-10-08T06:16:34.868Z,12.04
2022-10-08T06:19:03.175Z,12.03
2022-10-08T06:21:31.053Z,12.11
2022-10-08T06:24:00.928Z,12.16
2022-10-08T06:26:35.707Z,12.29
2022-10-08T06:29:05.844Z,12.49
2022-10-08T06:31:34.809Z,12.73
2022-10-08T06:34:04.114Z,12.96
2022-10-08T06:36:33.324Z,13.11
2022-10-08T06:39:05.627Z,13.27
2022-10-08T06:41:35.532Z,13.36
2022-10-08T06:44:05.273Z,13.38
2022-10-08T06:46:33.318Z,13.38
2022-10-08T06:49:02.499Z,13.19
2022-10-08T06:51:30.513Z,13.20
2022-10-08T06:54:05.751Z,13.31
2022-10-08T06:56:35.638Z,13.44
2022-10-08T06:59:02.590Z,13.65
2022-10-08T07:01:33.404Z,13.91
2022-10-08T07:04:02.054Z,14.22
2022-10-08T07:06:29.480Z,14.46
2022-10-08T07:08:59.513Z,14.75
2022-10-08T07:11:28.202Z,15.12
2022-10-08T07:13:56.323Z,15.19
2022-10-08T07:16:25.758Z,14.94
2022-10-08T07:18:54.429Z,14.64
2022-10-08T07:21:22.718Z,14.70
2022-10-08T07:23:50.382Z,14.70
2022-10-08T07:26:23.853Z,15.09
2022-10-08T07:28:58.165Z,15.22
2022-10-08T07:31:37.376Z,15.32
2022-10-08T07:34:08.567Z,15.44
2022-10-08T07:36:35.611Z,15.86
2022-10-08T07:39:06.981Z,16.07
2022-10-08T07:41:34.821Z,16.65
2022-10-08T07:44:03.540Z,17.23
2022-10-08T07:46:33.745Z,18.01
2022-10-08T07:49:01.676Z,18.38
2022-10-08T07:51:31.505Z,19.01
2022-10-08T07:54:02.736Z,19.50
2022-10-08T07:56:30.794Z,20.17
2022-10-08T07:58:59.688Z,20.07
2022-10-08T08:01:29.672Z,20.51
2022-10-08T08:04:02.911Z,20.59
2022-10-08T08:06:32.200Z,20.76
2022-10-08T08:09:01.200Z,20.79
2022-10-08T08:11:28.927Z,20.94
2022-10-08T08:13:56.099Z,19.97
2022-10-08T08:16:25.792Z,19.60
2022-10-08T08:18:58.500Z,19.63
2022-10-08T08:21:31.076Z,19.38
2022-10-08T08:24:02.047Z,19.91
2022-10-08T08:26:35.660Z,20.71
2022-10-08T08:29:06.155Z,20.68
2022-10-08T08:31:40.296Z,20.40
2022-10-08T08:34:10.331Z,19.89
2022-10-08T08:36:39.906Z,20.26
2022-10-08T08:39:09.014Z,20.74
2022-10-08T08:42:07.721Z,20.53
2022-10-08T08:44:38.586Z,20.64
2022-10-08T08:47:18.062Z,21.36
2022-10-08T08:49:52.494Z,21.78
2022-10-08T08:52:22.694Z,22.49
2022-10-08T08:54:51.395Z,23.13
2022-10-08T08:57:42.122Z,23.10
2022-10-08T09:00:30.147Z,23.52
2022-10-08T09:03:03.493Z,22.61
2022-10-08T09:05:33.749Z,24.07
2022-10-08T09:08:19.750Z,23.93
2022-10-08T09:10:59.984Z,22.57
2022-10-08T09:13:49.270Z,21.53
2022-10-08T09:16:17.438Z,20.94
2022-10-08T09:18:50.326Z,21.34
2022-10-08T09:21:18.554Z,22.35
2022-10-08T09:23:46.482Z,23.27
2022-10-08T09:26:45.885Z,24.49
2022-10-08T09:29:33.620Z,24.63
2022-10-08T09:32:00.594Z,24.58
2022-10-08T09:34:27.604Z,24.76
2022-10-08T09:37:06.391Z,25.52
2022-10-08T09:39:35.772Z,25.67
2022-10-08T09:42:17.547Z,26.10
2022-10-08T09:44:45.959Z,25.47
2022-10-08T09:47:25.219Z,24.59
2022-10-08T09:50:19.074Z,25.28
2022-10-08T09:52:50.350Z,24.94
2022-10-08T09:55:22.940Z,25.36
2022-10-08T09:57:56.713Z,25.53
2022-10-08T10:00:35.239Z,26.15
2022-10-08T10:03:04.891Z,26.06
2022-10-08T10:05:35.477Z,25.91
2022-10-08T10:08:03.000Z,26.04
2022-10-08T10:10:40.579Z,27.19
2022-10-08T10:13:10.504Z,26.93
2022-10-08T10:15:45.494Z,25.52
2022-10-08T10:18:21.553Z,25.60
2022-10-08T10:20:58.611Z,25.44
2022-10-08T10:23:37.232Z,25.53
2022-10-08T10:26:21.769Z,26.77
2022-10-08T10:28:55.049Z,26.68
2022-10-08T10:31:36.819Z,26.13
2022-10-08T10:34:15.608Z,26.24
2022-10-08T10:36:53.972Z,26.55
2022-10-08T10:39:21.921Z,27.00
2022-10-08T10:41:57.878Z,27.69
2022-10-08T10:44:49.813Z,28.34
2022-10-08T10:47:20.146Z,28.33
2022-10-08T10:49:47.458Z,28.50
2022-10-08T10:52:34.565Z,29.23
2022-10-08T10:55:23.500Z,29.52
2022-10-08T10:58:06.173Z,30.13
2022-10-08T11:00:58.235Z,28.97
2022-10-08T11:03:37.479Z,29.01
2022-10-08T11:06:29.051Z,27.91
2022-10-08T11:09:12.562Z,26.70
2022-10-08T11:11:57.512Z,25.34
2022-10-08T11:14:37.318Z,25.02
2022-10-08T11:17:23.766Z,25.82
2022-10-08T11:20:14.717Z,27.16
2022-10-08T11:23:03.573Z,27.13
2022-10-08T11:25:56.015Z,27.43
2022-10-08T11:29:15.681Z,26.96
2022-10-08T11:31:51.241Z,26.71
2022-10-08T11:34:34.215Z,27.07
2022-10-08T11:37:08.943Z,27.57
2022-10-08T11:40:01.996Z,25.91
2022-10-08T11:42:40.183Z,25.20
2022-10-08T11:45:29.188Z,23.96
2022-10-08T11:47:58.478Z,23.88
2022-10-08T11:50:35.058Z,24.24
2022-10-08T11:53:15.131Z,24.70
2022-10-08T11:55:55.088Z,25.54
2022-10-08T11:58:28.941Z,25.89
2022-10-08T12:01:08.357Z,26.17
2022-10-08T12:03:40.170Z,26.74
2022-10-08T12:06:29.648Z,26.21
2022-10-08T12:08:59.259Z,26.14
2022-10-08T12:11:32.195Z,26.49
2022-10-08T12:14:13.902Z,26.59
2022-10-08T12:16:56.352Z,26.84
2022-10-08T12:19:38.162Z,27.53
2022-10-08T12:22:27.933Z,27.09
2022-10-08T12:24:59.249Z,27.46
2022-10-08T12:27:39.177Z,26.90
2022-10-08T12:30:16.736Z,26.71
2022-10-08T12:32:44.202Z,24.70
2022-10-08T12:35:40.625Z,23.61
2022-10-08T12:38:16.752Z,24.30
2022-10-08T12:40:52.463Z,25.15
2022-10-08T12:43:45.822Z,25.76
2022-10-08T12:46:27.377Z,25.76
2022-10-08T12:49:20.525Z,25.77
2022-10-08T12:52:10.424Z,26.54
2022-10-08T12:54:40.279Z,27.63
2022-10-08T12:57:12.683Z,26.60
2022-10-08T12:59:41.525Z,26.25
2022-10-08T13:02:38.843Z,25.12
2022-10-08T13:05:22.027Z,24.88
2022-10-08T13:07:50.001Z,24.83
2022-10-08T13:10:21.175Z,25.56
2022-10-08T13:13:05.982Z,25.97
2022-10-08T13:15:34.515Z,26.20
2022-10-08T13:18:20.055Z,26.14
2022-10-08T13:21:01.700Z,26.59
2022-10-08T13:23:36.297Z,26.65
2022-10-08T13:26:03.766Z,26.13
2022-10-08T13:28:59.036Z,25.67
2022-10-08T13:31:24.109Z,25.70
2022-10-08T13:33:51.626Z,24.84
2022-10-08T13:36:23.572Z,24.39
2022-10-08T13:38:51.059Z,23.63
2022-10-08T13:41:23.822Z,22.16
2022-10-08T13:43:51.432Z,21.12
2022-10-08T13:46:18.801Z,20.75
2022-10-08T13:48:46.211Z,20.12
2022-10-08T13:51:13.513Z,19.58
2022-10-08T13:53:45.382Z,19.44
2022-10-08T13:56:12.797Z,19.15
2022-10-08T13:58:40.243Z,19.21
2022-10-08T14:01:07.708Z,19.10
2022-10-08T14:03:35.203Z,19.33
2022-10-08T14:06:02.545Z,19.44
2022-10-08T14:08:31.384Z,19.34
2022-10-08T14:10:58.993Z,19.20
2022-10-08T14:13:26.717Z,19.12
2022-10-08T14:15:54.174Z,18.89
2022-10-08T14:18:21.602Z,18.72
2022-10-08T14:20:50.880Z,18.73
2022-10-08T14:23:19.169Z,18.72
2022-10-08T14:25:46.910Z,18.62
2022-10-08T14:28:14.296Z,18.76
2022-10-08T14:30:41.647Z,18.68
2022-10-08T14:33:11.425Z,18.56
2022-10-08T14:35:39.202Z,18.50
2022-10-08T14:38:06.550Z,18.29
2022-10-08T14:40:34.055Z,18.05
2022-10-08T14:43:01.467Z,17.82
2022-10-08T14:45:28.779Z,17.49
2022-10-08T14:47:56.102Z,17.42
2022-10-08T14:50:23.528Z,17.36
2022-10-08T14:52:51.327Z,17.35
2022-10-08T14:55:19.326Z,17.34
2022-10-08T14:57:46.594Z,17.27
2022-10-08T15:00:14.682Z,17.25
2022-10-08T15:02:41.998Z,17.21
2022-10-08T15:05:09.456Z,17.22
2022-10-08T15:07:36.843Z,17.18
2022-10-08T15:10:05.411Z,17.18
2022-10-08T15:12:32.844Z,17.16
2022-10-08T15:15:00.143Z,17.18
2022-10-08T15:17:27.492Z,17.41
2022-10-08T15:19:54.881Z,17.49
2022-10-08T15:22:22.198Z,17.57
2022-10-08T15:24:49.481Z,17.59
2022-10-08T15:27:20.609Z,17.53
2022-10-08T15:29:48.373Z,17.38
2022-10-08T15:32:15.939Z,17.35
2022-10-08T15:34:43.289Z,17.37
2022-10-08T15:37:10.642Z,17.30
2022-10-08T15:39:37.958Z,17.31
2022-10-08T15:42:05.345Z,17.11
2022-10-08T15:44:32.823Z,16.92
2022-10-08T15:47:11.501Z,16.78
2022-10-08T15:49:40.301Z,16.70
2022-10-08T15:52:16.422Z,16.55
2022-10-08T15:54:44.726Z,16.43
2022-10-08T15:57:13.919Z,16.24
2022-10-08T15:59:41.327Z,16.10
2022-10-08T16:02:15.552Z,16.05
2022-10-08T16:04:45.002Z,15.89
2022-10-08T16:07:12.313Z,15.81
2022-10-08T16:09:39.620Z,15.74
2022-10-08T16:12:06.978Z,15.67
2022-10-08T16:14:34.356Z,15.71
2022-10-08T16:17:02.958Z,15.64
2022-10-08T16:19:30.510Z,15.55
2022-10-08T16:21:58.780Z,15.51
2022-10-08T16:24:26.488Z,15.36
2022-10-08T16:26:53.925Z,15.26
2022-10-08T16:29:21.263Z,15.11
2022-10-08T16:31:49.287Z,14.95
2022-10-08T16:34:18.900Z,14.90
2022-10-08T16:36:48.246Z,14.74
2022-10-08T16:39:18.229Z,14.66
2022-10-08T16:41:46.078Z,14.49
2022-10-08T16:44:15.360Z,14.26
2022-10-08T16:46:50.126Z,14.07
2022-10-08T16:49:26.259Z,13.92
2022-10-08T16:51:59.082Z,13.84
2022-10-08T16:54:27.079Z,13.72
2022-10-08T16:56:54.499Z,13.47
2022-10-08T16:59:24.300Z,13.33
2022-10-08T17:01:54.169Z,13.24
2022-10-08T17:04:23.502Z,13.20
2022-10-08T17:06:51.095Z,13.16
2022-10-08T17:09:19.138Z,13.02
2022-10-08T17:11:46.614Z,12.96
2022-10-08T17:14:14.317Z,12.73
2022-10-08T17:16:43.481Z,12.60
2022-10-08T17:19:11.486Z,12.42
2022-10-08T17:21:39.089Z,12.29
2022-10-08T17:24:07.335Z,12.14
2022-10-08T17:26:35.014Z,12.04
2022-10-08T17:29:11.347Z,11.97
2022-10-08T17:31:39.576Z,11.91
2022-10-08T17:34:07.531Z,11.91
2022-10-08T17:36:37.457Z,11.95
2022-10-08T17:39:08.208Z,11.99
2022-10-08T17:41:37.933Z,12.02
2022-10-08T17:44:07.450Z,12.01
2022-10-08T17:46:40.614Z,11.85
2022-10-08T17:49:08.135Z,11.87
2022-10-08T17:51:35.522Z,12.10
2022-10-08T17:54:05.197Z,11.88
2022-10-08T17:56:33.342Z,11.59
2022-10-08T17:59:00.950Z,11.25
2022-10-08T18:01:34.126Z,10.88
2022-10-08T18:04:06.141Z,10.74
2022-10-08T18:06:35.343Z,10.80
2022-10-08T18:09:06.385Z,10.76
2022-10-08T18:11:36.353Z,11.02
2022-10-08T18:14:04.404Z,10.85
2022-10-08T18:16:32.421Z,10.76
2022-10-08T18:19:01.821Z,10.71
2022-10-08T18:21:32.930Z,10.68
2022-10-08T18:24:00.258Z,10.61
2022-10-08T18:26:34.486Z,10.59
2022-10-08T18:29:09.017Z,10.58
2022-10-08T18:31:37.255Z,10.53
2022-10-08T18:34:09.850Z,10.46
2022-10-08T18:36:38.022Z,10.39
2022-10-08T18:39:14.139Z,10.33
2022-10-08T18:41:43.898Z,10.55
2022-10-08T18:44:13.890Z,10.68
2022-10-08T18:46:44.469Z,10.58
2022-10-08T18:49:17.119Z,10.33
2022-10-08T18:51:45.057Z,10.61
2022-10-08T18:54:12.844Z,10.70
2022-10-08T18:56:41.397Z,10.73
2022-10-08T18:59:14.745Z,10.65
2022-10-08T19:01:45.231Z,10.70
2022-10-08T19:04:21.075Z,10.75
2022-10-08T19:06:50.486Z,10.75
2022-10-08T19:09:18.080Z,10.57
2022-10-08T19:11:48.043Z,10.57
2022-10-08T19:14:18.165Z,10.13
2022-10-08T19:16:45.644Z,10.07
2022-10-08T19:19:18.410Z,9.76
2022-10-08T19:21:46.679Z,9.69
2022-10-08T19:24:16.817Z,9.57
2022-10-08T19:26:44.995Z,9.43
2022-10-08T19:29:17.845Z,9.29
2022-10-08T19:31:47.747Z,9.32
2022-10-08T19:34:17.554Z,9.29
2022-10-08T19:36:44.984Z,9.32
2022-10-08T19:39:14.410Z,9.40
2022-10-08T19:41:42.625Z,9.62
2022-10-08T19:44:10.352Z,9.77
2022-10-08T19:46:37.939Z,9.90
2022-10-08T19:49:06.940Z,9.95
2022-10-08T19:51:34.950Z,9.89
2022-10-08T19:54:03.120Z,9.80
2022-10-08T19:56:31.185Z,9.77
2022-10-08T19:58:58.815Z,9.73
2022-10-08T20:01:33.505Z,9.67
2022-10-08T20:04:01.929Z,9.59
2022-10-08T20:06:31.809Z,9.40
2022-10-08T20:09:01.558Z,9.14
2022-10-08T20:11:30.546Z,8.69
2022-10-08T20:13:58.732Z,8.62
2022-10-08T20:16:31.134Z,8.82
2022-10-08T20:19:01.164Z,8.54
2022-10-08T20:21:30.587Z,8.68
2022-10-08T20:23:58.100Z,8.44
2022-10-08T20:26:28.215Z,8.26
2022-10-08T20:28:59.066Z,8.16
2022-10-08T20:31:35.686Z,8.21
2022-10-08T20:34:09.954Z,8.14
2022-10-08T20:36:37.388Z,8.03
2022-10-08T20:39:05.162Z,8.11
2022-10-08T20:41:32.899Z,8.24
2022-10-08T20:44:02.856Z,8.56
2022-10-08T20:46:31.743Z,8.63
2022-10-08T20:48:59.491Z,8.68
2022-10-08T20:51:27.838Z,8.69
2022-10-08T20:54:06.969Z,8.60
2022-10-08T20:56:39.452Z,8.60
2022-10-08T20:59:08.259Z,8.38
2022-10-08T21:01:38.069Z,8.17
2022-10-08T21:04:06.813Z,8.45
2022-10-08T21:06:39.448Z,8.42
2022-10-08T21:09:07.487Z,8.41
2022-10-08T21:11:35.378Z,8.39
2022-10-08T21:14:03.537Z,8.29
2022-10-08T21:16:36.751Z,8.11
2022-10-08T21:19:07.204Z,7.62
2022-10-08T21:21:35.061Z,7.41
2022-10-08T21:24:02.473Z,7.33
2022-10-08T21:26:35.063Z,7.24
2022-10-08T21:29:04.314Z,7.16
2022-10-08T21:31:33.238Z,7.21
2022-10-08T21:34:00.720Z,7.07
2022-10-08T21:36:34.393Z,7.10
2022-10-08T21:39:03.256Z,7.15
2022-10-08T21:41:33.285Z,7.12
2022-10-08T21:44:03.327Z,7.54
2022-10-08T21:46:32.945Z,7.67
2022-10-08T21:49:03.104Z,7.29
2022-10-08T21:51:37.669Z,7.44
2022-10-08T21:54:06.388Z,7.54
2022-10-08T21:56:36.358Z,7.61
2022-10-08T21:59:05.541Z,7.56
2022-10-08T22:01:35.772Z,7.53
2022-10-08T22:04:05.070Z,7.61
2022-10-08T22:06:35.697Z,7.76
2022-10-08T22:09:04.030Z,7.57
2022-10-08T22:11:31.408Z,7.59
2022-10-08T22:13:58.803Z,7.14
2022-10-08T22:16:26.439Z,6.81
2022-10-08T22:18:53.857Z,6.57
2022-10-08T22:21:23.289Z,6.40
2022-10-08T22:23:52.328Z,6.31
2022-10-08T22:26:27.139Z,6.54
2022-10-08T22:28:54.824Z,6.67
2022-10-08T22:31:22.283Z,6.77
2022-10-08T22:33:49.926Z,6.41
2022-10-08T22:36:20.156Z,6.28
2022-10-08T22:38:48.361Z,6.28
2022-10-08T22:41:17.502Z,6.24
2022-10-08T22:43:45.250Z,6.37
2022-10-08T22:46:20.521Z,6.64
2022-10-08T22:48:48.321Z,6.80
2022-10-08T22:51:18.075Z,6.90
2022-10-08T22:53:46.160Z,7.10
2022-10-08T22:56:22.058Z,7.18
2022-10-08T22:58:50.192Z,7.14
2022-10-08T23:01:19.875Z,7.11
2022-10-08T23:03:48.118Z,7.06
2022-10-08T23:06:33.225Z,6.97
2022-10-08T23:09:03.338Z,6.52
2022-10-08T23:11:31.914Z,6.13
2022-10-08T23:14:00.286Z,6.12
2022-10-08T23:16:29.764Z,5.84
2022-10-08T23:19:05.711Z,5.74
2022-10-08T23:21:33.993Z,6.33
2022-10-08T23:24:01.563Z,6.42
2022-10-08T23:26:30.450Z,6.61
2022-10-08T23:28:59.826Z,6.61
2022-10-08T23:31:29.505Z,6.60
2022-10-08T23:33:57.465Z,6.63
2022-10-08T23:36:32.682Z,6.54
2022-10-08T23:39:00.210Z,5.74
2022-10-08T23:41:28.062Z,5.48
2022-10-08T23:43:56.077Z,5.41
2022-10-08T23:46:25.647Z,5.38
2022-10-08T23:48:53.729Z,5.70
2022-10-08T23:51:21.876Z,5.94
2022-10-08T23:53:50.355Z,6.09
2022-10-08T23:56:17.816Z,5.86
2022-10-08T23:58:45.271Z,5.96
